sensor_id;sensor_type;location;lat;lon;timestamp;pressure;altitude;pressure_sealevel;temperature;humidity
34235;BME280;20500;49.856;20.290;2023-02-14T00:01:37;100660.23;;;3.53;79.73
34235;BME280;20500;49.856;20.290;2023-02-14T00:04:44;100660.27;;;3.53;79.69
34235;BME280;20500;49.856;20.290;2023-02-14T00:07:52;100656.77;;;3.52;79.74
34235;BME280;20500;49.856;20.290;2023-02-14T00:10:58;100650.82;;;3.52;79.82
34235;BME280;20500;49.856;20.290;2023-02-14T00:14:05;100647.96;;;3.54;79.65
34235;BME280;20500;49.856;20.290;2023-02-14T00:17:29;100643.60;;;3.55;79.77
34235;BME280;20500;49.856;20.290;2023-02-14T00:20:35;100645.63;;;3.54;79.72
34235;BME280;20500;49.856;20.290;2023-02-14T00:23:41;100646.84;;;3.53;79.76
34235;BME280;20500;49.856;20.290;2023-02-14T00:26:48;100648.95;;;3.50;79.70
34235;BME280;20500;49.856;20.290;2023-02-14T00:29:54;100648.86;;;3.49;79.65
34235;BME280;20500;49.856;20.290;2023-02-14T00:33:05;100653.19;;;3.49;79.82
34235;BME280;20500;49.856;20.290;2023-02-14T00:36:12;100656.10;;;3.48;79.71
34235;BME280;20500;49.856;20.290;2023-02-14T00:39:19;100656.69;;;3.50;79.80
34235;BME280;20500;49.856;20.290;2023-02-14T00:42:26;100657.85;;;3.52;79.83
34235;BME280;20500;49.856;20.290;2023-02-14T00:45:32;100652.47;;;3.51;79.82
34235;BME280;20500;49.856;20.290;2023-02-14T00:48:38;100655.27;;;3.52;79.73
34235;BME280;20500;49.856;20.290;2023-02-14T00:51:45;100657.46;;;3.52;79.74
34235;BME280;20500;49.856;20.290;2023-02-14T00:54:49;100642.52;;;3.50;79.61
34235;BME280;20500;49.856;20.290;2023-02-14T00:57:55;100634.54;;;3.48;79.60
34235;BME280;20500;49.856;20.290;2023-02-14T01:01:02;100630.58;;;3.49;79.61
34235;BME280;20500;49.856;20.290;2023-02-14T01:04:08;100633.20;;;3.50;79.64
34235;BME280;20500;49.856;20.290;2023-02-14T01:07:14;100634.52;;;3.52;79.74
34235;BME280;20500;49.856;20.290;2023-02-14T01:10:21;100636.17;;;3.54;79.78
34235;BME280;20500;49.856;20.290;2023-02-14T01:13:27;100635.95;;;3.54;79.97
34235;BME280;20500;49.856;20.290;2023-02-14T01:16:34;100633.98;;;3.54;79.84
34235;BME280;20500;49.856;20.290;2023-02-14T01:19:40;100631.57;;;3.53;79.90
34235;BME280;20500;49.856;20.290;2023-02-14T01:22:47;100634.84;;;3.52;79.92
34235;BME280;20500;49.856;20.290;2023-02-14T01:25:51;100638.33;;;3.51;79.94
34235;BME280;20500;49.856;20.290;2023-02-14T01:28:57;100636.05;;;3.47;79.99
34235;BME280;20500;49.856;20.290;2023-02-14T01:32:04;100633.66;;;3.48;80.11
34235;BME280;20500;49.856;20.290;2023-02-14T01:35:11;100635.03;;;3.49;80.06
34235;BME280;20500;49.856;20.290;2023-02-14T01:38:17;100634.81;;;3.47;79.92
34235;BME280;20500;49.856;20.290;2023-02-14T01:41:25;100635.30;;;3.48;80.02
34235;BME280;20500;49.856;20.290;2023-02-14T01:44:57;100629.54;;;3.48;80.07
34235;BME280;20500;49.856;20.290;2023-02-14T01:48:04;100622.47;;;3.46;80.02
34235;BME280;20500;49.856;20.290;2023-02-14T01:51:08;100623.57;;;3.46;80.08
34235;BME280;20500;49.856;20.290;2023-02-14T01:54:15;100623.70;;;3.44;80.16
34235;BME280;20500;49.856;20.290;2023-02-14T01:57:23;100624.44;;;3.44;80.11
34235;BME280;20500;49.856;20.290;2023-02-14T02:00:34;100620.10;;;3.44;80.10
34235;BME280;20500;49.856;20.290;2023-02-14T02:04:00;100619.23;;;3.40;79.97
34235;BME280;20500;49.856;20.290;2023-02-14T02:07:11;100616.94;;;3.40;80.15
34235;BME280;20500;49.856;20.290;2023-02-14T02:10:20;100614.94;;;3.40;80.15
34235;BME280;20500;49.856;20.290;2023-02-14T02:13:26;100611.80;;;3.42;80.24
34235;BME280;20500;49.856;20.290;2023-02-14T02:16:43;100607.77;;;3.43;80.24
34235;BME280;20500;49.856;20.290;2023-02-14T02:24:25;100614.06;;;3.40;80.21
34235;BME280;20500;49.856;20.290;2023-02-14T02:27:59;100617.30;;;3.40;80.22
34235;BME280;20500;49.856;20.290;2023-02-14T02:31:24;100619.08;;;3.40;80.26
34235;BME280;20500;49.856;20.290;2023-02-14T02:38:33;100615.67;;;3.37;80.18
34235;BME280;20500;49.856;20.290;2023-02-14T02:41:51;100620.66;;;3.35;80.24
34235;BME280;20500;49.856;20.290;2023-02-14T02:45:09;100618.38;;;3.34;80.23
34235;BME280;20500;49.856;20.290;2023-02-14T02:48:20;100615.14;;;3.34;80.12
34235;BME280;20500;49.856;20.290;2023-02-14T02:51:34;100615.88;;;3.34;80.24
34235;BME280;20500;49.856;20.290;2023-02-14T02:55:05;100618.73;;;3.34;80.13
34235;BME280;20500;49.856;20.290;2023-02-14T02:58:12;100624.27;;;3.32;80.18
34235;BME280;20500;49.856;20.290;2023-02-14T03:01:17;100627.85;;;3.32;80.30
34235;BME280;20500;49.856;20.290;2023-02-14T03:04:26;100629.53;;;3.34;80.27
34235;BME280;20500;49.856;20.290;2023-02-14T03:07:51;100631.52;;;3.34;80.35
34235;BME280;20500;49.856;20.290;2023-02-14T03:10:57;100627.55;;;3.31;80.22
34235;BME280;20500;49.856;20.290;2023-02-14T03:14:16;100626.19;;;3.30;80.24
34235;BME280;20500;49.856;20.290;2023-02-14T03:17:28;100628.17;;;3.30;80.26
34235;BME280;20500;49.856;20.290;2023-02-14T03:20:45;100628.44;;;3.29;80.14
34235;BME280;20500;49.856;20.290;2023-02-14T03:23:59;100631.02;;;3.30;80.33
34235;BME280;20500;49.856;20.290;2023-02-14T03:27:15;100629.69;;;3.31;80.31
34235;BME280;20500;49.856;20.290;2023-02-14T03:30:25;100627.24;;;3.30;80.26
34235;BME280;20500;49.856;20.290;2023-02-14T03:33:42;100623.77;;;3.29;80.31
34235;BME280;20500;49.856;20.290;2023-02-14T03:36:55;100625.75;;;3.29;80.39
34235;BME280;20500;49.856;20.290;2023-02-14T03:40:09;100631.39;;;3.27;80.30
34235;BME280;20500;49.856;20.290;2023-02-14T03:43:22;100634.33;;;3.26;80.33
34235;BME280;20500;49.856;20.290;2023-02-14T03:46:32;100638.82;;;3.26;80.35
34235;BME280;20500;49.856;20.290;2023-02-14T03:49:43;100636.23;;;3.25;80.25
34235;BME280;20500;49.856;20.290;2023-02-14T03:52:52;100635.91;;;3.24;80.27
34235;BME280;20500;49.856;20.290;2023-02-14T03:56:05;100638.03;;;3.24;80.30
34235;BME280;20500;49.856;20.290;2023-02-14T03:59:15;100643.49;;;3.26;80.37
34235;BME280;20500;49.856;20.290;2023-02-14T04:02:26;100643.30;;;3.26;80.34
34235;BME280;20500;49.856;20.290;2023-02-14T04:05:35;100643.98;;;3.27;80.33
34235;BME280;20500;49.856;20.290;2023-02-14T04:08:42;100640.77;;;3.26;80.43
34235;BME280;20500;49.856;20.290;2023-02-14T04:11:48;100644.02;;;3.26;80.34
34235;BME280;20500;49.856;20.290;2023-02-14T04:14:55;100644.64;;;3.25;80.27
34235;BME280;20500;49.856;20.290;2023-02-14T04:17:59;100647.15;;;3.25;80.30
34235;BME280;20500;49.856;20.290;2023-02-14T04:21:23;100650.40;;;3.25;80.43
34235;BME280;20500;49.856;20.290;2023-02-14T04:24:27;100650.36;;;3.25;80.43
34235;BME280;20500;49.856;20.290;2023-02-14T04:27:34;100652.95;;;3.24;80.37
34235;BME280;20500;49.856;20.290;2023-02-14T04:30:40;100654.16;;;3.22;80.34
34235;BME280;20500;49.856;20.290;2023-02-14T04:33:45;100655.99;;;3.21;80.52
34235;BME280;20500;49.856;20.290;2023-02-14T04:36:52;100656.83;;;3.22;80.44
34235;BME280;20500;49.856;20.290;2023-02-14T04:39:58;100652.60;;;3.24;80.48
34235;BME280;20500;49.856;20.290;2023-02-14T04:43:04;100654.62;;;3.23;80.40
34235;BME280;20500;49.856;20.290;2023-02-14T04:46:12;100652.69;;;3.23;80.45
34235;BME280;20500;49.856;20.290;2023-02-14T04:49:18;100653.08;;;3.22;80.38
34235;BME280;20500;49.856;20.290;2023-02-14T04:52:23;100651.22;;;3.23;80.43
34235;BME280;20500;49.856;20.290;2023-02-14T04:55:29;100647.23;;;3.23;80.41
34235;BME280;20500;49.856;20.290;2023-02-14T04:58:35;100647.77;;;3.24;80.42
34235;BME280;20500;49.856;20.290;2023-02-14T05:01:40;100653.48;;;3.24;80.39
34235;BME280;20500;49.856;20.290;2023-02-14T05:04:47;100653.36;;;3.20;80.41
34235;BME280;20500;49.856;20.290;2023-02-14T05:07:53;100654.26;;;3.14;80.37
34235;BME280;20500;49.856;20.290;2023-02-14T05:10:58;100654.58;;;3.12;80.49
34235;BME280;20500;49.856;20.290;2023-02-14T05:14:07;100655.20;;;3.11;80.52
34235;BME280;20500;49.856;20.290;2023-02-14T05:17:13;100652.48;;;3.09;80.51
34235;BME280;20500;49.856;20.290;2023-02-14T05:20:18;100653.64;;;3.10;80.63
34235;BME280;20500;49.856;20.290;2023-02-14T05:23:24;100655.99;;;3.13;80.63
34235;BME280;20500;49.856;20.290;2023-02-14T05:26:31;100654.02;;;3.13;80.50
34235;BME280;20500;49.856;20.290;2023-02-14T05:29:37;100646.63;;;3.10;80.46
34235;BME280;20500;49.856;20.290;2023-02-14T05:32:42;100644.45;;;3.08;80.52
34235;BME280;20500;49.856;20.290;2023-02-14T05:35:48;100646.23;;;3.05;80.55
34235;BME280;20500;49.856;20.290;2023-02-14T05:38:52;100640.94;;;3.04;80.60
34235;BME280;20500;49.856;20.290;2023-02-14T05:41:59;100646.05;;;3.03;80.54
34235;BME280;20500;49.856;20.290;2023-02-14T05:45:04;100651.80;;;3.03;80.59
34235;BME280;20500;49.856;20.290;2023-02-14T05:48:10;100648.77;;;3.05;80.64
34235;BME280;20500;49.856;20.290;2023-02-14T05:51:17;100652.09;;;3.06;80.68
34235;BME280;20500;49.856;20.290;2023-02-14T05:54:21;100657.08;;;3.10;80.75
34235;BME280;20500;49.856;20.290;2023-02-14T05:57:28;100661.10;;;3.11;80.71
34235;BME280;20500;49.856;20.290;2023-02-14T06:00:34;100664.93;;;3.10;80.56
34235;BME280;20500;49.856;20.290;2023-02-14T06:03:43;100666.89;;;3.10;80.58
34235;BME280;20500;49.856;20.290;2023-02-14T06:06:48;100664.80;;;3.12;80.56
34235;BME280;20500;49.856;20.290;2023-02-14T06:09:54;100666.05;;;3.15;80.67
34235;BME280;20500;49.856;20.290;2023-02-14T06:12:58;100662.02;;;3.16;80.54
34235;BME280;20500;49.856;20.290;2023-02-14T06:16:06;100659.00;;;3.16;80.60
34235;BME280;20500;49.856;20.290;2023-02-14T06:19:12;100661.45;;;3.17;80.52
34235;BME280;20500;49.856;20.290;2023-02-14T06:22:18;100661.89;;;3.19;80.50
34235;BME280;20500;49.856;20.290;2023-02-14T06:25:25;100659.13;;;3.20;80.44
34235;BME280;20500;49.856;20.290;2023-02-14T06:28:31;100660.39;;;3.23;80.57
34235;BME280;20500;49.856;20.290;2023-02-14T06:31:38;100662.17;;;3.26;80.62
34235;BME280;20500;49.856;20.290;2023-02-14T06:34:44;100661.13;;;3.28;80.59
34235;BME280;20500;49.856;20.290;2023-02-14T06:37:51;100662.86;;;3.29;80.55
34235;BME280;20500;49.856;20.290;2023-02-14T06:41:03;100664.95;;;3.30;80.48
34235;BME280;20500;49.856;20.290;2023-02-14T06:44:10;100661.65;;;3.34;80.54
34235;BME280;20500;49.856;20.290;2023-02-14T06:47:14;100666.84;;;3.37;80.48
34235;BME280;20500;49.856;20.290;2023-02-14T06:50:21;100667.40;;;3.39;80.51
34235;BME280;20500;49.856;20.290;2023-02-14T06:53:25;100667.78;;;3.39;80.37
34235;BME280;20500;49.856;20.290;2023-02-14T06:56:32;100671.29;;;3.37;80.28
34235;BME280;20500;49.856;20.290;2023-02-14T06:59:38;100671.39;;;3.39;80.48
34235;BME280;20500;49.856;20.290;2023-02-14T07:02:44;100673.92;;;3.41;80.45
34235;BME280;20500;49.856;20.290;2023-02-14T07:05:51;100674.14;;;3.44;80.43
34235;BME280;20500;49.856;20.290;2023-02-14T07:08:58;100671.48;;;3.46;80.34
34235;BME280;20500;49.856;20.290;2023-02-14T07:12:02;100677.20;;;3.46;80.20
34235;BME280;20500;49.856;20.290;2023-02-14T07:15:12;100679.00;;;3.46;80.27
34235;BME280;20500;49.856;20.290;2023-02-14T07:18:18;100681.31;;;3.47;80.27
34235;BME280;20500;49.856;20.290;2023-02-14T07:21:24;100686.71;;;3.49;80.25
34235;BME280;20500;49.856;20.290;2023-02-14T07:24:31;100688.39;;;3.51;80.19
34235;BME280;20500;49.856;20.290;2023-02-14T07:27:37;100685.30;;;3.54;80.22
34235;BME280;20500;49.856;20.290;2023-02-14T07:30:44;100687.52;;;3.59;80.24
34235;BME280;20500;49.856;20.290;2023-02-14T07:33:48;100688.98;;;3.61;80.21
34235;BME280;20500;49.856;20.290;2023-02-14T07:36:55;100688.55;;;3.62;80.10
34235;BME280;20500;49.856;20.290;2023-02-14T07:39:59;100690.12;;;3.60;80.12
34235;BME280;20500;49.856;20.290;2023-02-14T07:43:07;100687.91;;;3.58;80.09
34235;BME280;20500;49.856;20.290;2023-02-14T07:46:13;100692.03;;;3.56;79.97
34235;BME280;20500;49.856;20.290;2023-02-14T07:49:21;100694.63;;;3.54;80.07
34235;BME280;20500;49.856;20.290;2023-02-14T07:52:27;100698.53;;;3.58;80.22
34235;BME280;20500;49.856;20.290;2023-02-14T07:55:32;100700.92;;;3.63;80.16
34235;BME280;20500;49.856;20.290;2023-02-14T07:58:38;100703.00;;;3.64;80.05
34235;BME280;20500;49.856;20.290;2023-02-14T08:01:45;100703.70;;;3.64;80.06
34235;BME280;20500;49.856;20.290;2023-02-14T08:04:51;100703.70;;;3.64;80.13
34235;BME280;20500;49.856;20.290;2023-02-14T08:07:55;100703.77;;;3.69;80.08
34235;BME280;20500;49.856;20.290;2023-02-14T08:11:02;100707.61;;;3.73;80.04
34235;BME280;20500;49.856;20.290;2023-02-14T08:14:08;100711.62;;;3.78;80.12
34235;BME280;20500;49.856;20.290;2023-02-14T08:17:13;100710.48;;;3.81;80.00
34235;BME280;20500;49.856;20.290;2023-02-14T08:20:19;100711.02;;;3.84;79.94
34235;BME280;20500;49.856;20.290;2023-02-14T08:23:24;100715.13;;;3.87;79.95
34235;BME280;20500;49.856;20.290;2023-02-14T08:26:30;100712.39;;;3.91;80.06
34235;BME280;20500;49.856;20.290;2023-02-14T08:29:37;100707.33;;;3.94;79.93
34235;BME280;20500;49.856;20.290;2023-02-14T08:32:41;100708.09;;;3.96;79.83
34235;BME280;20500;49.856;20.290;2023-02-14T08:35:49;100710.70;;;3.98;79.87
34235;BME280;20500;49.856;20.290;2023-02-14T08:38:56;100713.00;;;4.01;79.91
34235;BME280;20500;49.856;20.290;2023-02-14T08:42:02;100715.15;;;4.04;79.81
34235;BME280;20500;49.856;20.290;2023-02-14T08:45:10;100717.44;;;4.07;79.81
34235;BME280;20500;49.856;20.290;2023-02-14T08:48:16;100722.74;;;4.09;79.82
34235;BME280;20500;49.856;20.290;2023-02-14T08:51:21;100728.59;;;4.10;79.76
34235;BME280;20500;49.856;20.290;2023-02-14T08:54:27;100733.29;;;4.09;79.78
34235;BME280;20500;49.856;20.290;2023-02-14T08:57:32;100734.91;;;4.15;79.76
34235;BME280;20500;49.856;20.290;2023-02-14T09:00:38;100743.92;;;4.20;79.82
34235;BME280;20500;49.856;20.290;2023-02-14T09:03:45;100743.07;;;4.22;79.68
34235;BME280;20500;49.856;20.290;2023-02-14T09:06:49;100750.59;;;4.25;79.71
34235;BME280;20500;49.856;20.290;2023-02-14T09:09:56;100754.48;;;4.29;79.70
34235;BME280;20500;49.856;20.290;2023-02-14T09:13:00;100756.23;;;4.32;79.63
34235;BME280;20500;49.856;20.290;2023-02-14T09:16:08;100753.16;;;4.35;79.69
34235;BME280;20500;49.856;20.290;2023-02-14T09:19:15;100758.05;;;4.40;79.71
34235;BME280;20500;49.856;20.290;2023-02-14T09:22:20;100759.02;;;4.42;79.55
34235;BME280;20500;49.856;20.290;2023-02-14T09:25:26;100759.36;;;4.42;79.65
34235;BME280;20500;49.856;20.290;2023-02-14T09:31:37;100761.24;;;4.44;79.48
34235;BME280;20500;49.856;20.290;2023-02-14T09:34:44;100762.30;;;4.44;79.53
34235;BME280;20500;49.856;20.290;2023-02-14T09:38:08;100760.35;;;4.46;79.47
34235;BME280;20500;49.856;20.290;2023-02-14T09:44:56;100763.17;;;4.60;79.57
34235;BME280;20500;49.856;20.290;2023-02-14T09:48:08;100764.93;;;4.72;79.44
34235;BME280;20500;49.856;20.290;2023-02-14T09:51:19;100762.37;;;4.75;79.39
34235;BME280;20500;49.856;20.290;2023-02-14T09:54:28;100757.01;;;4.80;79.42
34235;BME280;20500;49.856;20.290;2023-02-14T09:57:42;100753.45;;;4.85;79.31
34235;BME280;20500;49.856;20.290;2023-02-14T10:00:55;100757.66;;;4.83;79.12
34235;BME280;20500;49.856;20.290;2023-02-14T10:04:16;100754.22;;;4.86;79.25
34235;BME280;20500;49.856;20.290;2023-02-14T10:07:30;100757.11;;;4.94;79.24
34235;BME280;20500;49.856;20.290;2023-02-14T10:10:41;100762.36;;;4.99;79.15
34235;BME280;20500;49.856;20.290;2023-02-14T10:13:50;100758.29;;;5.01;79.04
34235;BME280;20500;49.856;20.290;2023-02-14T10:17:00;100757.27;;;5.02;78.92
34235;BME280;20500;49.856;20.290;2023-02-14T10:20:17;100755.11;;;5.05;78.90
34235;BME280;20500;49.856;20.290;2023-02-14T10:23:31;100756.18;;;5.08;78.91
34235;BME280;20500;49.856;20.290;2023-02-14T10:26:40;100757.90;;;5.14;79.05
34235;BME280;20500;49.856;20.290;2023-02-14T10:29:46;100752.98;;;5.23;78.97
34235;BME280;20500;49.856;20.290;2023-02-14T10:32:54;100747.56;;;5.28;78.80
34235;BME280;20500;49.856;20.290;2023-02-14T10:36:07;100743.30;;;5.30;78.79
34235;BME280;20500;49.856;20.290;2023-02-14T10:42:55;100741.23;;;5.42;78.76
34235;BME280;20500;49.856;20.290;2023-02-14T10:46:09;100742.92;;;5.48;78.62
34235;BME280;20500;49.856;20.290;2023-02-14T10:49:36;100738.50;;;5.52;78.56
34235;BME280;20500;49.856;20.290;2023-02-14T10:52:51;100736.33;;;5.55;78.42
34235;BME280;20500;49.856;20.290;2023-02-14T10:56:05;100733.67;;;5.56;78.41
34235;BME280;20500;49.856;20.290;2023-02-14T10:59:19;100734.50;;;5.62;78.48
34235;BME280;20500;49.856;20.290;2023-02-14T11:02:37;100731.08;;;5.68;78.40
34235;BME280;20500;49.856;20.290;2023-02-14T11:05:46;100732.34;;;5.73;78.24
34235;BME280;20500;49.856;20.290;2023-02-14T11:08:53;100726.36;;;5.73;78.00
34235;BME280;20500;49.856;20.290;2023-02-14T11:12:01;100726.03;;;5.68;77.85
34235;BME280;20500;49.856;20.290;2023-02-14T11:15:16;100721.10;;;5.63;77.85
34235;BME280;20500;49.856;20.290;2023-02-14T11:18:26;100719.42;;;5.65;77.91
34235;BME280;20500;49.856;20.290;2023-02-14T11:21:39;100723.07;;;5.64;77.83
34235;BME280;20500;49.856;20.290;2023-02-14T11:24:46;100716.56;;;5.59;77.56
34235;BME280;20500;49.856;20.290;2023-02-14T11:27:51;100713.13;;;5.52;77.60
34235;BME280;20500;49.856;20.290;2023-02-14T11:31:00;100705.02;;;5.47;77.60
34235;BME280;20500;49.856;20.290;2023-02-14T11:34:22;100706.65;;;5.47;77.51
34235;BME280;20500;49.856;20.290;2023-02-14T11:37:32;100703.95;;;5.47;77.51
34235;BME280;20500;49.856;20.290;2023-02-14T11:40:41;100698.36;;;5.45;77.44
34235;BME280;20500;49.856;20.290;2023-02-14T11:43:45;100698.30;;;5.45;77.47
34235;BME280;20500;49.856;20.290;2023-02-14T11:46:54;100700.46;;;5.45;77.28
34235;BME280;20500;49.856;20.290;2023-02-14T11:50:02;100693.64;;;5.42;77.19
34235;BME280;20500;49.856;20.290;2023-02-14T11:53:11;100693.57;;;5.43;77.23
34235;BME280;20500;49.856;20.290;2023-02-14T11:56:19;100694.04;;;5.42;77.05
34235;BME280;20500;49.856;20.290;2023-02-14T11:59:33;100692.86;;;5.43;77.02
34235;BME280;20500;49.856;20.290;2023-02-14T12:02:42;100690.77;;;5.42;76.92
34235;BME280;20500;49.856;20.290;2023-02-14T12:05:50;100687.37;;;5.42;76.82
34235;BME280;20500;49.856;20.290;2023-02-14T12:09:15;100681.30;;;5.44;76.85
34235;BME280;20500;49.856;20.290;2023-02-14T12:12:29;100680.05;;;5.41;76.74
34235;BME280;20500;49.856;20.290;2023-02-14T12:15:34;100677.39;;;5.40;76.79
34235;BME280;20500;49.856;20.290;2023-02-14T12:18:53;100678.40;;;5.41;76.82
34235;BME280;20500;49.856;20.290;2023-02-14T12:22:03;100675.65;;;5.40;76.61
34235;BME280;20500;49.856;20.290;2023-02-14T12:25:14;100671.02;;;5.42;76.68
34235;BME280;20500;49.856;20.290;2023-02-14T12:28:24;100666.74;;;5.46;76.66
34235;BME280;20500;49.856;20.290;2023-02-14T12:31:34;100670.98;;;5.49;76.65
34235;BME280;20500;49.856;20.290;2023-02-14T12:34:39;100665.83;;;5.54;76.63
34235;BME280;20500;49.856;20.290;2023-02-14T12:37:53;100663.63;;;5.56;76.45
34235;BME280;20500;49.856;20.290;2023-02-14T12:41:19;100656.27;;;5.58;76.52
34235;BME280;20500;49.856;20.290;2023-02-14T12:44:35;100649.27;;;5.63;76.67
34235;BME280;20500;49.856;20.290;2023-02-14T12:47:54;100654.02;;;5.65;76.53
34235;BME280;20500;49.856;20.290;2023-02-14T12:51:08;100654.39;;;5.62;76.14
34235;BME280;20500;49.856;20.290;2023-02-14T12:54:29;100652.18;;;5.55;76.34
34235;BME280;20500;49.856;20.290;2023-02-14T12:57:45;100649.78;;;5.54;76.37
34235;BME280;20500;49.856;20.290;2023-02-14T13:00:55;100646.45;;;5.50;76.09
34235;BME280;20500;49.856;20.290;2023-02-14T13:04:24;100644.46;;;5.45;76.14
34235;BME280;20500;49.856;20.290;2023-02-14T13:07:58;100640.13;;;5.46;76.18
34235;BME280;20500;49.856;20.290;2023-02-14T13:11:18;100638.48;;;5.46;76.04
34235;BME280;20500;49.856;20.290;2023-02-14T13:14:45;100643.42;;;5.47;76.04
34235;BME280;20500;49.856;20.290;2023-02-14T13:17:58;100640.02;;;5.45;75.94
34235;BME280;20500;49.856;20.290;2023-02-14T13:21:07;100633.67;;;5.43;75.98
34235;BME280;20500;49.856;20.290;2023-02-14T13:24:18;100634.50;;;5.44;75.96
34235;BME280;20500;49.856;20.290;2023-02-14T13:27:28;100635.79;;;5.43;75.97
34235;BME280;20500;49.856;20.290;2023-02-14T13:30:37;100629.77;;;5.47;76.04
34235;BME280;20500;49.856;20.290;2023-02-14T13:33:49;100624.29;;;5.48;75.90
34235;BME280;20500;49.856;20.290;2023-02-14T13:36:58;100623.72;;;5.48;75.85
34235;BME280;20500;49.856;20.290;2023-02-14T13:40:14;100622.06;;;5.56;76.05
34235;BME280;20500;49.856;20.290;2023-02-14T13:43:47;100624.84;;;5.62;75.78
34235;BME280;20500;49.856;20.290;2023-02-14T13:46:53;100622.45;;;5.60;75.76
34235;BME280;20500;49.856;20.290;2023-02-14T13:49:58;100621.21;;;5.62;75.75
34235;BME280;20500;49.856;20.290;2023-02-14T13:53:08;100622.85;;;5.65;75.69
34235;BME280;20500;49.856;20.290;2023-02-14T13:56:41;100628.55;;;5.63;75.62
34235;BME280;20500;49.856;20.290;2023-02-14T14:03:57;100624.14;;;5.52;75.40
34235;BME280;20500;49.856;20.290;2023-02-14T14:07:24;100620.54;;;5.52;75.46
34235;BME280;20500;49.856;20.290;2023-02-14T14:10:44;100619.29;;;5.54;75.56
34235;BME280;20500;49.856;20.290;2023-02-14T14:13:58;100617.06;;;5.55;75.41
34235;BME280;20500;49.856;20.290;2023-02-14T14:17:23;100622.33;;;5.52;75.41
34235;BME280;20500;49.856;20.290;2023-02-14T14:20:42;100624.75;;;5.54;75.37
34235;BME280;20500;49.856;20.290;2023-02-14T14:24:04;100622.09;;;5.51;75.22
34235;BME280;20500;49.856;20.290;2023-02-14T14:27:17;100616.45;;;5.49;75.25
34235;BME280;20500;49.856;20.290;2023-02-14T14:30:27;100620.25;;;5.49;75.28
34235;BME280;20500;49.856;20.290;2023-02-14T14:33:36;100621.80;;;5.47;75.14
34235;BME280;20500;49.856;20.290;2023-02-14T14:36:42;100623.18;;;5.51;75.26
34235;BME280;20500;49.856;20.290;2023-02-14T14:39:50;100619.56;;;5.51;75.14
34235;BME280;20500;49.856;20.290;2023-02-14T14:43:00;100618.77;;;5.47;75.04
34235;BME280;20500;49.856;20.290;2023-02-14T14:46:12;100623.13;;;5.39;74.86
34235;BME280;20500;49.856;20.290;2023-02-14T14:49:19;100624.39;;;5.34;75.13
34235;BME280;20500;49.856;20.290;2023-02-14T14:52:31;100623.89;;;5.35;75.10
34235;BME280;20500;49.856;20.290;2023-02-14T14:55:40;100623.48;;;5.34;75.01
34235;BME280;20500;49.856;20.290;2023-02-14T14:58:50;100625.27;;;5.34;75.00
34235;BME280;20500;49.856;20.290;2023-02-14T15:01:56;100628.90;;;5.33;74.98
34235;BME280;20500;49.856;20.290;2023-02-14T15:05:18;100631.92;;;5.34;74.95
34235;BME280;20500;49.856;20.290;2023-02-14T15:08:30;100629.63;;;5.28;74.81
34235;BME280;20500;49.856;20.290;2023-02-14T15:11:37;100627.77;;;5.22;74.82
34235;BME280;20500;49.856;20.290;2023-02-14T15:15:02;100629.10;;;5.19;74.82
34235;BME280;20500;49.856;20.290;2023-02-14T15:18:13;100633.40;;;5.13;74.77
34235;BME280;20500;49.856;20.290;2023-02-14T15:21:19;100636.27;;;5.08;74.68
34235;BME280;20500;49.856;20.290;2023-02-14T15:24:24;100637.24;;;5.07;74.77
34235;BME280;20500;49.856;20.290;2023-02-14T15:27:31;100637.70;;;5.06;74.81
34235;BME280;20500;49.856;20.290;2023-02-14T15:30:38;100638.52;;;5.05;74.70
34235;BME280;20500;49.856;20.290;2023-02-14T15:33:48;100641.11;;;5.04;74.86
34235;BME280;20500;49.856;20.290;2023-02-14T15:36:54;100646.77;;;5.05;74.83
34235;BME280;20500;49.856;20.290;2023-02-14T15:40:14;100649.77;;;5.06;74.83
34235;BME280;20500;49.856;20.290;2023-02-14T15:43:27;100650.40;;;5.05;74.79
34235;BME280;20500;49.856;20.290;2023-02-14T15:46:37;100651.55;;;5.04;74.73
34235;BME280;20500;49.856;20.290;2023-02-14T15:49:45;100655.33;;;5.01;74.67
34235;BME280;20500;49.856;20.290;2023-02-14T15:52:49;100656.21;;;4.97;74.59
34235;BME280;20500;49.856;20.290;2023-02-14T15:56:03;100658.85;;;4.95;74.64
34235;BME280;20500;49.856;20.290;2023-02-14T15:59:16;100659.35;;;4.93;74.56
34235;BME280;20500;49.856;20.290;2023-02-14T16:02:29;100665.60;;;4.88;74.51
34235;BME280;20500;49.856;20.290;2023-02-14T16:05:38;100665.39;;;4.83;74.51
34235;BME280;20500;49.856;20.290;2023-02-14T16:08:54;100663.27;;;4.80;74.40
34235;BME280;20500;49.856;20.290;2023-02-14T16:12:12;100665.23;;;4.75;74.49
34235;BME280;20500;49.856;20.290;2023-02-14T16:15:29;100670.98;;;4.73;74.51
34235;BME280;20500;49.856;20.290;2023-02-14T16:18:37;100671.23;;;4.72;74.53
34235;BME280;20500;49.856;20.290;2023-02-14T16:21:55;100670.55;;;4.71;74.51
34235;BME280;20500;49.856;20.290;2023-02-14T16:25:02;100677.34;;;4.69;74.38
34235;BME280;20500;49.856;20.290;2023-02-14T16:28:08;100681.12;;;4.67;74.32
34235;BME280;20500;49.856;20.290;2023-02-14T16:31:13;100681.31;;;4.67;74.45
34235;BME280;20500;49.856;20.290;2023-02-14T16:34:19;100681.06;;;4.64;74.48
34235;BME280;20500;49.856;20.290;2023-02-14T16:37:27;100685.25;;;4.64;74.34
34235;BME280;20500;49.856;20.290;2023-02-14T16:40:34;100686.45;;;4.62;74.42
34235;BME280;20500;49.856;20.290;2023-02-14T16:43:41;100687.28;;;4.63;74.48
34235;BME280;20500;49.856;20.290;2023-02-14T16:46:47;100689.81;;;4.63;74.44
34235;BME280;20500;49.856;20.290;2023-02-14T16:49:54;100689.27;;;4.60;74.33
34235;BME280;20500;49.856;20.290;2023-02-14T16:52:58;100690.02;;;4.57;74.42
34235;BME280;20500;49.856;20.290;2023-02-14T16:56:05;100693.84;;;4.54;74.32